sensor_id;sensor_type;location;lat;lon;timestamp;P1;durP1;ratioP1;P2;durP2;ratioP2
31306;SDS011;17935;51.120;13.132;2023-07-08T00:00:34;7.47;;;6.05;;
31306;SDS011;17935;51.120;13.132;2023-07-08T00:03:00;13.35;;;6.38;;
31306;SDS011;17935;51.120;13.132;2023-07-08T00:05:26;12.45;;;7.30;;
31306;SDS011;17935;51.120;13.132;2023-07-08T00:07:52;11.43;;;6.10;;
31306;SDS011;17935;51.120;13.132;2023-07-08T00:10:22;10.43;;;6.07;;
31306;SDS011;17935;51.120;13.132;2023-07-08T00:12:50;8.07;;;6.18;;
31306;SDS011;17935;51.120;13.132;2023-07-08T00:15:16;12.63;;;6.18;;
31306;SDS011;17935;51.120;13.132;2023-07-08T00:17:42;9.60;;;6.30;;
31306;SDS011;17935;51.120;13.132;2023-07-08T00:20:12;15.43;;;6.60;;
31306;SDS011;17935;51.120;13.132;2023-07-08T00:22:39;9.13;;;5.82;;
31306;SDS011;17935;51.120;13.132;2023-07-08T00:25:06;8.88;;;5.65;;
31306;SDS011;17935;51.120;13.132;2023-07-08T00:27:32;9.80;;;6.30;;
31306;SDS011;17935;51.120;13.132;2023-07-08T00:29:58;9.23;;;6.13;;
31306;SDS011;17935;51.120;13.132;2023-07-08T00:32:25;8.85;;;6.63;;
31306;SDS011;17935;51.120;13.132;2023-07-08T00:34:51;12.00;;;6.75;;
31306;SDS011;17935;51.120;13.132;2023-07-08T00:37:17;11.55;;;6.75;;
31306;SDS011;17935;51.120;13.132;2023-07-08T00:39:43;10.25;;;6.68;;
31306;SDS011;17935;51.120;13.132;2023-07-08T00:42:15;11.35;;;6.32;;
31306;SDS011;17935;51.120;13.132;2023-07-08T00:44:41;11.27;;;6.25;;
31306;SDS011;17935;51.120;13.132;2023-07-08T00:47:09;8.85;;;6.10;;
31306;SDS011;17935;51.120;13.132;2023-07-08T00:49:37;9.93;;;6.03;;
31306;SDS011;17935;51.120;13.132;2023-07-08T00:52:18;10.05;;;6.88;;
31306;SDS011;17935;51.120;13.132;2023-07-08T00:54:44;9.57;;;6.75;;
31306;SDS011;17935;51.120;13.132;2023-07-08T00:57:10;8.52;;;6.15;;
31306;SDS011;17935;51.120;13.132;2023-07-08T00:59:48;10.27;;;6.57;;
31306;SDS011;17935;51.120;13.132;2023-07-08T01:02:16;9.55;;;7.00;;
31306;SDS011;17935;51.120;13.132;2023-07-08T01:04:47;10.38;;;7.07;;
31306;SDS011;17935;51.120;13.132;2023-07-08T01:07:13;9.77;;;6.65;;
31306;SDS011;17935;51.120;13.132;2023-07-08T01:09:46;8.83;;;7.17;;
31306;SDS011;17935;51.120;13.132;2023-07-08T01:12:15;11.63;;;6.88;;
31306;SDS011;17935;51.120;13.132;2023-07-08T01:14:41;10.98;;;7.18;;
31306;SDS011;17935;51.120;13.132;2023-07-08T01:17:08;13.13;;;6.90;;
31306;SDS011;17935;51.120;13.132;2023-07-08T01:19:38;10.75;;;6.53;;
31306;SDS011;17935;51.120;13.132;2023-07-08T01:22:05;10.75;;;6.55;;
31306;SDS011;17935;51.120;13.132;2023-07-08T01:24:33;11.73;;;6.70;;
31306;SDS011;17935;51.120;13.132;2023-07-08T01:27:00;11.40;;;6.80;;
31306;SDS011;17935;51.120;13.132;2023-07-08T01:29:26;8.65;;;6.85;;
31306;SDS011;17935;51.120;13.132;2023-07-08T01:31:54;10.50;;;6.93;;
31306;SDS011;17935;51.120;13.132;2023-07-08T01:34:20;11.13;;;6.38;;
31306;SDS011;17935;51.120;13.132;2023-07-08T01:36:51;8.25;;;6.43;;
31306;SDS011;17935;51.120;13.132;2023-07-08T01:39:18;12.82;;;7.57;;
31306;SDS011;17935;51.120;13.132;2023-07-08T01:41:45;12.07;;;7.68;;
31306;SDS011;17935;51.120;13.132;2023-07-08T01:44:21;14.00;;;7.57;;
31306;SDS011;17935;51.120;13.132;2023-07-08T01:46:48;12.40;;;6.88;;
31306;SDS011;17935;51.120;13.132;2023-07-08T01:49:14;16.38;;;8.18;;
31306;SDS011;17935;51.120;13.132;2023-07-08T01:51:40;15.77;;;7.68;;
31306;SDS011;17935;51.120;13.132;2023-07-08T01:54:06;12.35;;;7.47;;
31306;SDS011;17935;51.120;13.132;2023-07-08T01:56:32;11.90;;;7.32;;
31306;SDS011;17935;51.120;13.132;2023-07-08T01:58:57;19.92;;;8.25;;
31306;SDS011;17935;51.120;13.132;2023-07-08T02:01:23;15.88;;;8.48;;
31306;SDS011;17935;51.120;13.132;2023-07-08T02:03:49;11.45;;;7.30;;
31306;SDS011;17935;51.120;13.132;2023-07-08T02:06:16;14.98;;;8.60;;
31306;SDS011;17935;51.120;13.132;2023-07-08T02:08:41;12.10;;;7.18;;
31306;SDS011;17935;51.120;13.132;2023-07-08T02:11:07;13.82;;;8.13;;
31306;SDS011;17935;51.120;13.132;2023-07-08T02:13:33;20.35;;;8.30;;
31306;SDS011;17935;51.120;13.132;2023-07-08T02:15:59;12.23;;;8.32;;
31306;SDS011;17935;51.120;13.132;2023-07-08T02:18:25;12.38;;;7.65;;
31306;SDS011;17935;51.120;13.132;2023-07-08T02:20:51;15.15;;;8.27;;
31306;SDS011;17935;51.120;13.132;2023-07-08T02:23:17;17.02;;;7.50;;
31306;SDS011;17935;51.120;13.132;2023-07-08T02:25:52;11.93;;;7.45;;
31306;SDS011;17935;51.120;13.132;2023-07-08T02:28:19;11.70;;;7.55;;
31306;SDS011;17935;51.120;13.132;2023-07-08T02:30:45;13.73;;;8.20;;
31306;SDS011;17935;51.120;13.132;2023-07-08T02:33:11;12.48;;;8.07;;
31306;SDS011;17935;51.120;13.132;2023-07-08T02:35:37;14.02;;;8.43;;
31306;SDS011;17935;51.120;13.132;2023-07-08T02:38:04;13.70;;;7.80;;
31306;SDS011;17935;51.120;13.132;2023-07-08T02:40:30;15.98;;;7.35;;
31306;SDS011;17935;51.120;13.132;2023-07-08T02:42:55;21.27;;;9.30;;
31306;SDS011;17935;51.120;13.132;2023-07-08T02:45:21;15.80;;;7.63;;
31306;SDS011;17935;51.120;13.132;2023-07-08T02:47:47;13.90;;;7.32;;
31306;SDS011;17935;51.120;13.132;2023-07-08T02:50:13;13.25;;;7.93;;
31306;SDS011;17935;51.120;13.132;2023-07-08T02:52:39;14.25;;;7.88;;
31306;SDS011;17935;51.120;13.132;2023-07-08T02:55:05;12.20;;;8.05;;
31306;SDS011;17935;51.120;13.132;2023-07-08T02:57:31;15.77;;;7.70;;
31306;SDS011;17935;51.120;13.132;2023-07-08T02:59:57;13.30;;;7.70;;
31306;SDS011;17935;51.120;13.132;2023-07-08T03:02:23;16.40;;;7.70;;
31306;SDS011;17935;51.120;13.132;2023-07-08T03:04:49;11.10;;;7.68;;
31306;SDS011;17935;51.120;13.132;2023-07-08T03:07:16;11.05;;;7.65;;
31306;SDS011;17935;51.120;13.132;2023-07-08T03:09:42;16.95;;;8.43;;
31306;SDS011;17935;51.120;13.132;2023-07-08T03:12:09;13.80;;;7.65;;
31306;SDS011;17935;51.120;13.132;2023-07-08T03:14:35;14.18;;;8.43;;
31306;SDS011;17935;51.120;13.132;2023-07-08T03:17:01;14.73;;;8.00;;
31306;SDS011;17935;51.120;13.132;2023-07-08T03:19:27;14.32;;;8.77;;
31306;SDS011;17935;51.120;13.132;2023-07-08T03:21:53;16.25;;;8.18;;
31306;SDS011;17935;51.120;13.132;2023-07-08T03:24:19;13.15;;;7.80;;
31306;SDS011;17935;51.120;13.132;2023-07-08T03:26:45;16.23;;;8.00;;
31306;SDS011;17935;51.120;13.132;2023-07-08T03:29:15;15.57;;;7.82;;
31306;SDS011;17935;51.120;13.132;2023-07-08T03:31:41;18.55;;;7.72;;
31306;SDS011;17935;51.120;13.132;2023-07-08T03:34:11;10.40;;;6.80;;
31306;SDS011;17935;51.120;13.132;2023-07-08T03:36:42;14.55;;;7.68;;
31306;SDS011;17935;51.120;13.132;2023-07-08T03:39:13;14.30;;;7.70;;
31306;SDS011;17935;51.120;13.132;2023-07-08T03:41:39;12.02;;;6.88;;
31306;SDS011;17935;51.120;13.132;2023-07-08T03:44:05;12.68;;;7.82;;
31306;SDS011;17935;51.120;13.132;2023-07-08T03:46:31;14.52;;;7.57;;
31306;SDS011;17935;51.120;13.132;2023-07-08T03:48:57;13.50;;;8.38;;
31306;SDS011;17935;51.120;13.132;2023-07-08T03:51:24;14.02;;;7.32;;
31306;SDS011;17935;51.120;13.132;2023-07-08T03:53:50;12.02;;;7.20;;
31306;SDS011;17935;51.120;13.132;2023-07-08T03:56:16;14.63;;;7.32;;
31306;SDS011;17935;51.120;13.132;2023-07-08T03:58:42;15.18;;;6.90;;
31306;SDS011;17935;51.120;13.132;2023-07-08T04:01:10;9.40;;;5.97;;
31306;SDS011;17935;51.120;13.132;2023-07-08T04:03:39;16.60;;;6.03;;
31306;SDS011;17935;51.120;13.132;2023-07-08T04:06:05;14.82;;;5.72;;
31306;SDS011;17935;51.120;13.132;2023-07-08T04:08:31;9.10;;;4.95;;
31306;SDS011;17935;51.120;13.132;2023-07-08T04:10:57;10.57;;;5.65;;
31306;SDS011;17935;51.120;13.132;2023-07-08T04:13:23;8.15;;;5.60;;
31306;SDS011;17935;51.120;13.132;2023-07-08T04:15:56;11.25;;;5.30;;
31306;SDS011;17935;51.120;13.132;2023-07-08T04:18:23;10.18;;;4.95;;
31306;SDS011;17935;51.120;13.132;2023-07-08T04:20:49;11.55;;;5.32;;
31306;SDS011;17935;51.120;13.132;2023-07-08T04:23:20;9.50;;;4.82;;
31306;SDS011;17935;51.120;13.132;2023-07-08T04:25:49;11.48;;;4.55;;
31306;SDS011;17935;51.120;13.132;2023-07-08T04:28:15;8.80;;;4.57;;
31306;SDS011;17935;51.120;13.132;2023-07-08T04:30:41;10.93;;;4.50;;
31306;SDS011;17935;51.120;13.132;2023-07-08T04:33:08;8.88;;;5.15;;
31306;SDS011;17935;51.120;13.132;2023-07-08T04:35:34;6.93;;;4.95;;
31306;SDS011;17935;51.120;13.132;2023-07-08T04:38:01;9.32;;;4.95;;
31306;SDS011;17935;51.120;13.132;2023-07-08T04:40:34;7.47;;;4.73;;
31306;SDS011;17935;51.120;13.132;2023-07-08T04:43:01;10.30;;;4.50;;
31306;SDS011;17935;51.120;13.132;2023-07-08T04:45:28;9.93;;;4.60;;
31306;SDS011;17935;51.120;13.132;2023-07-08T04:47:53;9.65;;;4.65;;
31306;SDS011;17935;51.120;13.132;2023-07-08T04:50:19;10.70;;;5.43;;
31306;SDS011;17935;51.120;13.132;2023-07-08T04:52:45;8.43;;;4.30;;
31306;SDS011;17935;51.120;13.132;2023-07-08T04:55:12;5.35;;;4.03;;
31306;SDS011;17935;51.120;13.132;2023-07-08T04:57:38;8.68;;;3.90;;
31306;SDS011;17935;51.120;13.132;2023-07-08T05:00:05;7.28;;;4.50;;
31306;SDS011;17935;51.120;13.132;2023-07-08T05:02:33;6.63;;;4.80;;
31306;SDS011;17935;51.120;13.132;2023-07-08T05:04:59;8.50;;;4.68;;
31306;SDS011;17935;51.120;13.132;2023-07-08T05:07:26;8.05;;;4.40;;
31306;SDS011;17935;51.120;13.132;2023-07-08T05:09:51;7.65;;;4.55;;
31306;SDS011;17935;51.120;13.132;2023-07-08T05:12:17;8.20;;;5.05;;
31306;SDS011;17935;51.120;13.132;2023-07-08T05:14:43;7.68;;;4.35;;
31306;SDS011;17935;51.120;13.132;2023-07-08T05:17:09;8.80;;;4.30;;
31306;SDS011;17935;51.120;13.132;2023-07-08T05:19:35;8.35;;;4.53;;
31306;SDS011;17935;51.120;13.132;2023-07-08T05:22:01;9.88;;;4.22;;
31306;SDS011;17935;51.120;13.132;2023-07-08T05:24:27;7.53;;;4.35;;
31306;SDS011;17935;51.120;13.132;2023-07-08T05:26:53;6.03;;;4.18;;
31306;SDS011;17935;51.120;13.132;2023-07-08T05:29:19;9.55;;;4.85;;
31306;SDS011;17935;51.120;13.132;2023-07-08T05:31:45;6.55;;;4.15;;
31306;SDS011;17935;51.120;13.132;2023-07-08T05:34:11;9.52;;;4.38;;
31306;SDS011;17935;51.120;13.132;2023-07-08T05:36:37;5.80;;;4.13;;
31306;SDS011;17935;51.120;13.132;2023-07-08T05:39:03;6.78;;;3.97;;
31306;SDS011;17935;51.120;13.132;2023-07-08T05:41:30;5.18;;;3.90;;
31306;SDS011;17935;51.120;13.132;2023-07-08T05:43:56;6.30;;;3.92;;
31306;SDS011;17935;51.120;13.132;2023-07-08T05:46:22;7.75;;;4.68;;
31306;SDS011;17935;51.120;13.132;2023-07-08T05:48:48;11.27;;;4.43;;
31306;SDS011;17935;51.120;13.132;2023-07-08T05:51:15;6.10;;;3.55;;
31306;SDS011;17935;51.120;13.132;2023-07-08T05:53:41;10.18;;;4.20;;
31306;SDS011;17935;51.120;13.132;2023-07-08T05:56:07;5.30;;;4.28;;
31306;SDS011;17935;51.120;13.132;2023-07-08T05:58:33;12.25;;;4.15;;
31306;SDS011;17935;51.120;13.132;2023-07-08T06:00:59;6.00;;;4.10;;
31306;SDS011;17935;51.120;13.132;2023-07-08T06:03:25;10.88;;;4.13;;
31306;SDS011;17935;51.120;13.132;2023-07-08T06:05:51;6.55;;;4.00;;
31306;SDS011;17935;51.120;13.132;2023-07-08T06:08:17;7.10;;;4.22;;
31306;SDS011;17935;51.120;13.132;2023-07-08T06:10:44;9.18;;;4.18;;
31306;SDS011;17935;51.120;13.132;2023-07-08T06:13:10;6.65;;;3.30;;
31306;SDS011;17935;51.120;13.132;2023-07-08T06:15:37;6.25;;;4.10;;
31306;SDS011;17935;51.120;13.132;2023-07-08T06:18:02;4.93;;;3.60;;
31306;SDS011;17935;51.120;13.132;2023-07-08T06:20:29;4.85;;;3.40;;
31306;SDS011;17935;51.120;13.132;2023-07-08T06:22:55;5.28;;;3.20;;
31306;SDS011;17935;51.120;13.132;2023-07-08T06:25:21;7.30;;;3.88;;
31306;SDS011;17935;51.120;13.132;2023-07-08T06:27:47;5.43;;;3.25;;
31306;SDS011;17935;51.120;13.132;2023-07-08T06:30:13;5.25;;;3.55;;
31306;SDS011;17935;51.120;13.132;2023-07-08T06:32:39;8.55;;;3.60;;
31306;SDS011;17935;51.120;13.132;2023-07-08T06:35:05;6.07;;;3.58;;
31306;SDS011;17935;51.120;13.132;2023-07-08T06:37:31;9.82;;;3.50;;
31306;SDS011;17935;51.120;13.132;2023-07-08T06:39:57;4.47;;;3.20;;
31306;SDS011;17935;51.120;13.132;2023-07-08T06:42:23;3.83;;;2.92;;
31306;SDS011;17935;51.120;13.132;2023-07-08T06:44:49;6.38;;;2.90;;
31306;SDS011;17935;51.120;13.132;2023-07-08T06:47:19;7.97;;;3.10;;
31306;SDS011;17935;51.120;13.132;2023-07-08T06:49:45;4.78;;;3.13;;
31306;SDS011;17935;51.120;13.132;2023-07-08T06:52:11;6.18;;;2.92;;
31306;SDS011;17935;51.120;13.132;2023-07-08T06:54:37;3.67;;;2.90;;
31306;SDS011;17935;51.120;13.132;2023-07-08T06:57:04;5.97;;;3.22;;
31306;SDS011;17935;51.120;13.132;2023-07-08T06:59:30;4.45;;;3.53;;
31306;SDS011;17935;51.120;13.132;2023-07-08T07:01:56;5.15;;;3.03;;
31306;SDS011;17935;51.120;13.132;2023-07-08T07:04:22;7.10;;;3.70;;
31306;SDS011;17935;51.120;13.132;2023-07-08T07:06:48;4.07;;;2.85;;
31306;SDS011;17935;51.120;13.132;2023-07-08T07:09:13;6.18;;;3.17;;
31306;SDS011;17935;51.120;13.132;2023-07-08T07:11:39;4.93;;;3.00;;
31306;SDS011;17935;51.120;13.132;2023-07-08T07:14:05;3.25;;;2.92;;
31306;SDS011;17935;51.120;13.132;2023-07-08T07:16:31;3.10;;;2.58;;
31306;SDS011;17935;51.120;13.132;2023-07-08T07:18:57;3.08;;;2.38;;
31306;SDS011;17935;51.120;13.132;2023-07-08T07:21:23;3.80;;;2.42;;
31306;SDS011;17935;51.120;13.132;2023-07-08T07:23:49;8.18;;;2.88;;
31306;SDS011;17935;51.120;13.132;2023-07-08T07:26:15;7.35;;;3.10;;
31306;SDS011;17935;51.120;13.132;2023-07-08T07:28:41;4.88;;;2.72;;
31306;SDS011;17935;51.120;13.132;2023-07-08T07:31:07;3.28;;;2.92;;
31306;SDS011;17935;51.120;13.132;2023-07-08T07:33:35;6.78;;;3.13;;
31306;SDS011;17935;51.120;13.132;2023-07-08T07:36:02;3.63;;;2.78;;
31306;SDS011;17935;51.120;13.132;2023-07-08T07:38:28;5.28;;;3.00;;
31306;SDS011;17935;51.120;13.132;2023-07-08T07:40:54;5.32;;;2.38;;
31306;SDS011;17935;51.120;13.132;2023-07-08T07:43:21;5.95;;;2.70;;
31306;SDS011;17935;51.120;13.132;2023-07-08T07:45:50;7.18;;;3.28;;
31306;SDS011;17935;51.120;13.132;2023-07-08T07:48:17;4.28;;;2.67;;
31306;SDS011;17935;51.120;13.132;2023-07-08T07:50:46;3.22;;;2.50;;
31306;SDS011;17935;51.120;13.132;2023-07-08T07:53:12;16.77;;;3.17;;
31306;SDS011;17935;51.120;13.132;2023-07-08T07:55:38;7.93;;;2.72;;
31306;SDS011;17935;51.120;13.132;2023-07-08T07:58:04;4.25;;;2.72;;
31306;SDS011;17935;51.120;13.132;2023-07-08T08:00:30;6.57;;;3.13;;
31306;SDS011;17935;51.120;13.132;2023-07-08T08:02:56;4.38;;;2.78;;
31306;SDS011;17935;51.120;13.132;2023-07-08T08:05:22;3.00;;;2.67;;
31306;SDS011;17935;51.120;13.132;2023-07-08T08:07:48;4.80;;;3.22;;
31306;SDS011;17935;51.120;13.132;2023-07-08T08:10:15;3.80;;;2.72;;
31306;SDS011;17935;51.120;13.132;2023-07-08T08:12:41;2.75;;;2.55;;
31306;SDS011;17935;51.120;13.132;2023-07-08T08:15:07;4.70;;;2.40;;
31306;SDS011;17935;51.120;13.132;2023-07-08T08:17:33;3.05;;;2.40;;
31306;SDS011;17935;51.120;13.132;2023-07-08T08:19:59;3.05;;;2.65;;
31306;SDS011;17935;51.120;13.132;2023-07-08T08:22:25;4.50;;;2.60;;
31306;SDS011;17935;51.120;13.132;2023-07-08T08:24:51;7.93;;;2.80;;
31306;SDS011;17935;51.120;13.132;2023-07-08T08:27:17;4.18;;;2.90;;
31306;SDS011;17935;51.120;13.132;2023-07-08T08:29:43;6.72;;;2.75;;
31306;SDS011;17935;51.120;13.132;2023-07-08T08:32:09;8.50;;;3.97;;
31306;SDS011;17935;51.120;13.132;2023-07-08T08:34:35;4.22;;;2.70;;
31306;SDS011;17935;51.120;13.132;2023-07-08T08:37:01;4.03;;;2.95;;
31306;SDS011;17935;51.120;13.132;2023-07-08T08:39:27;3.75;;;2.42;;
31306;SDS011;17935;51.120;13.132;2023-07-08T08:41:55;3.38;;;2.78;;
31306;SDS011;17935;51.120;13.132;2023-07-08T08:44:54;8.73;;;2.90;;
31306;SDS011;17935;51.120;13.132;2023-07-08T08:50:04;3.30;;;2.80;;
31306;SDS011;17935;51.120;13.132;2023-07-08T08:52:36;3.95;;;2.92;;
31306;SDS011;17935;51.120;13.132;2023-07-08T08:55:08;3.38;;;2.60;;
31306;SDS011;17935;51.120;13.132;2023-07-08T08:57:48;2.85;;;2.65;;
31306;SDS011;17935;51.120;13.132;2023-07-08T09:00:16;2.60;;;2.40;;
31306;SDS011;17935;51.120;13.132;2023-07-08T09:02:57;3.50;;;2.38;;
31306;SDS011;17935;51.120;13.132;2023-07-08T09:05:24;6.30;;;3.15;;
31306;SDS011;17935;51.120;13.132;2023-07-08T09:08:00;5.22;;;2.72;;
31306;SDS011;17935;51.120;13.132;2023-07-08T09:13:06;4.28;;;2.72;;
31306;SDS011;17935;51.120;13.132;2023-07-08T09:15:32;5.85;;;3.00;;
31306;SDS011;17935;51.120;13.132;2023-07-08T09:18:00;11.85;;;2.75;;
31306;SDS011;17935;51.120;13.132;2023-07-08T09:20:31;5.78;;;3.00;;
31306;SDS011;17935;51.120;13.132;2023-07-08T09:23:13;4.13;;;2.28;;
31306;SDS011;17935;51.120;13.132;2023-07-08T09:25:46;6.97;;;3.05;;
31306;SDS011;17935;51.120;13.132;2023-07-08T09:28:14;9.60;;;2.75;;
31306;SDS011;17935;51.120;13.132;2023-07-08T09:30:40;7.95;;;2.75;;
31306;SDS011;17935;51.120;13.132;2023-07-08T09:33:07;3.42;;;3.08;;
31306;SDS011;17935;51.120;13.132;2023-07-08T09:35:40;5.40;;;2.97;;
31306;SDS011;17935;51.120;13.132;2023-07-08T09:38:07;8.60;;;3.42;;
31306;SDS011;17935;51.120;13.132;2023-07-08T09:40:34;7.03;;;2.88;;
31306;SDS011;17935;51.120;13.132;2023-07-08T09:43:16;4.65;;;2.88;;
31306;SDS011;17935;51.120;13.132;2023-07-08T09:45:46;7.38;;;3.25;;
31306;SDS011;17935;51.120;13.132;2023-07-08T09:48:17;5.32;;;2.85;;
31306;SDS011;17935;51.120;13.132;2023-07-08T09:50:44;4.43;;;3.20;;
31306;SDS011;17935;51.120;13.132;2023-07-08T09:53:13;4.18;;;3.20;;
31306;SDS011;17935;51.120;13.132;2023-07-08T09:55:40;5.97;;;3.17;;
31306;SDS011;17935;51.120;13.132;2023-07-08T09:58:08;3.65;;;2.63;;
31306;SDS011;17935;51.120;13.132;2023-07-08T10:00:38;7.90;;;3.08;;
31306;SDS011;17935;51.120;13.132;2023-07-08T10:03:08;5.28;;;3.10;;
31306;SDS011;17935;51.120;13.132;2023-07-08T10:05:35;3.50;;;3.17;;
31306;SDS011;17935;51.120;13.132;2023-07-08T10:08:09;4.78;;;3.22;;
31306;SDS011;17935;51.120;13.132;2023-07-08T10:10:37;5.10;;;3.00;;
31306;SDS011;17935;51.120;13.132;2023-07-08T10:13:04;6.63;;;3.10;;
31306;SDS011;17935;51.120;13.132;2023-07-08T10:15:34;9.65;;;3.30;;
31306;SDS011;17935;51.120;13.132;2023-07-08T10:18:02;4.43;;;3.20;;
31306;SDS011;17935;51.120;13.132;2023-07-08T10:20:29;17.52;;;3.83;;
31306;SDS011;17935;51.120;13.132;2023-07-08T10:25:45;7.00;;;3.45;;
31306;SDS011;17935;51.120;13.132;2023-07-08T10:28:23;5.35;;;3.35;;
31306;SDS011;17935;51.120;13.132;2023-07-08T10:30:58;7.38;;;3.50;;
31306;SDS011;17935;51.120;13.132;2023-07-08T10:44:29;4.43;;;3.78;;
31306;SDS011;17935;51.120;13.132;2023-07-08T10:47:02;5.88;;;3.95;;
31306;SDS011;17935;51.120;13.132;2023-07-08T10:49:50;4.80;;;3.72;;
31306;SDS011;17935;51.120;13.132;2023-07-08T10:52:36;5.82;;;4.03;;
31306;SDS011;17935;51.120;13.132;2023-07-08T10:57:51;4.70;;;3.78;;
31306;SDS011;17935;51.120;13.132;2023-07-08T11:00:27;7.38;;;4.03;;
31306;SDS011;17935;51.120;13.132;2023-07-08T11:02:58;4.20;;;3.80;;
31306;SDS011;17935;51.120;13.132;2023-07-08T11:10:38;6.65;;;3.85;;
31306;SDS011;17935;51.120;13.132;2023-07-08T11:13:12;10.90;;;4.95;;
31306;SDS011;17935;51.120;13.132;2023-07-08T11:15:43;5.75;;;3.58;;
31306;SDS011;17935;51.120;13.132;2023-07-08T11:26:26;5.85;;;3.75;;
31306;SDS011;17935;51.120;13.132;2023-07-08T11:28:54;9.45;;;3.92;;
31306;SDS011;17935;51.120;13.132;2023-07-08T11:31:22;5.45;;;3.60;;
31306;SDS011;17935;51.120;13.132;2023-07-08T11:33:48;4.85;;;3.67;;
31306;SDS011;17935;51.120;13.132;2023-07-08T11:36:15;8.40;;;3.55;;
31306;SDS011;17935;51.120;13.132;2023-07-08T11:38:48;4.70;;;3.47;;
31306;SDS011;17935;51.120;13.132;2023-07-08T11:41:15;5.88;;;4.05;;
31306;SDS011;17935;51.120;13.132;2023-07-08T11:43:44;5.30;;;4.05;;
31306;SDS011;17935;51.120;13.132;2023-07-08T11:46:13;6.70;;;4.20;;
31306;SDS011;17935;51.120;13.132;2023-07-08T11:48:42;3.92;;;3.53;;
31306;SDS011;17935;51.120;13.132;2023-07-08T11:51:09;8.48;;;5.65;;
31306;SDS011;17935;51.120;13.132;2023-07-08T11:53:47;9.55;;;3.92;;
31306;SDS011;17935;51.120;13.132;2023-07-08T12:01:28;7.63;;;4.07;;
31306;SDS011;17935;51.120;13.132;2023-07-08T12:03:58;7.03;;;3.90;;
31306;SDS011;17935;51.120;13.132;2023-07-08T12:08:59;8.48;;;3.90;;
31306;SDS011;17935;51.120;13.132;2023-07-08T12:11:26;4.07;;;3.67;;
31306;SDS011;17935;51.120;13.132;2023-07-08T12:13:53;10.77;;;4.57;;
31306;SDS011;17935;51.120;13.132;2023-07-08T12:16:21;3.70;;;3.35;;
31306;SDS011;17935;51.120;13.132;2023-07-08T12:18:47;4.57;;;3.78;;
31306;SDS011;17935;51.120;13.132;2023-07-08T12:21:14;5.38;;;4.20;;
31306;SDS011;17935;51.120;13.132;2023-07-08T12:23:44;5.30;;;3.92;;
31306;SDS011;17935;51.120;13.132;2023-07-08T12:26:10;5.25;;;3.97;;
31306;SDS011;17935;51.120;13.132;2023-07-08T12:28:36;5.00;;;3.67;;
31306;SDS011;17935;51.120;13.132;2023-07-08T12:31:07;7.30;;;3.95;;
31306;SDS011;17935;51.120;13.132;2023-07-08T12:33:35;5.05;;;3.90;;
31306;SDS011;17935;51.120;13.132;2023-07-08T12:36:04;5.70;;;3.75;;
31306;SDS011;17935;51.120;13.132;2023-07-08T12:38:30;4.60;;;4.10;;
31306;SDS011;17935;51.120;13.132;2023-07-08T12:41:01;4.95;;;3.60;;
31306;SDS011;17935;51.120;13.132;2023-07-08T12:43:27;4.75;;;3.65;;
31306;SDS011;17935;51.120;13.132;2023-07-08T12:45:53;4.57;;;3.92;;
31306;SDS011;17935;51.120;13.132;2023-07-08T12:48:19;3.60;;;3.30;;
31306;SDS011;17935;51.120;13.132;2023-07-08T12:50:45;10.10;;;4.05;;
31306;SDS011;17935;51.120;13.132;2023-07-08T12:53:11;6.50;;;3.70;;
31306;SDS011;17935;51.120;13.132;2023-07-08T12:55:41;5.97;;;4.40;;
31306;SDS011;17935;51.120;13.132;2023-07-08T12:58:16;5.45;;;3.92;;
31306;SDS011;17935;51.120;13.132;2023-07-08T13:00:44;7.05;;;4.22;;
31306;SDS011;17935;51.120;13.132;2023-07-08T13:05:37;5.43;;;3.95;;
31306;SDS011;17935;51.120;13.132;2023-07-08T13:08:03;6.55;;;3.97;;
31306;SDS011;17935;51.120;13.132;2023-07-08T13:10:31;6.90;;;3.95;;
31306;SDS011;17935;51.120;13.132;2023-07-08T13:13:00;4.80;;;3.78;;
31306;SDS011;17935;51.120;13.132;2023-07-08T13:15:28;6.63;;;3.83;;
31306;SDS011;17935;51.120;13.132;2023-07-08T13:17:56;5.38;;;3.95;;
31306;SDS011;17935;51.120;13.132;2023-07-08T13:20:22;4.53;;;3.83;;
31306;SDS011;17935;51.120;13.132;2023-07-08T13:22:51;4.40;;;3.67;;
31306;SDS011;17935;51.120;13.132;2023-07-08T13:25:18;4.18;;;3.58;;
31306;SDS011;17935;51.120;13.132;2023-07-08T13:27:53;7.65;;;4.30;;
31306;SDS011;17935;51.120;13.132;2023-07-08T13:30:20;5.07;;;4.15;;
31306;SDS011;17935;51.120;13.132;2023-07-08T13:32:52;5.88;;;4.70;;
31306;SDS011;17935;51.120;13.132;2023-07-08T13:35:35;5.57;;;3.85;;
31306;SDS011;17935;51.120;13.132;2023-07-08T13:40:28;6.50;;;3.60;;
31306;SDS011;17935;51.120;13.132;2023-07-08T13:42:54;6.95;;;4.20;;
31306;SDS011;17935;51.120;13.132;2023-07-08T13:45:29;3.80;;;3.40;;
31306;SDS011;17935;51.120;13.132;2023-07-08T13:50:51;6.63;;;3.92;;
31306;SDS011;17935;51.120;13.132;2023-07-08T13:56:09;7.68;;;4.82;;
31306;SDS011;17935;51.120;13.132;2023-07-08T13:58:41;5.63;;;3.35;;
31306;SDS011;17935;51.120;13.132;2023-07-08T14:01:08;5.70;;;4.18;;
31306;SDS011;17935;51.120;13.132;2023-07-08T14:03:35;4.60;;;3.72;;
31306;SDS011;17935;51.120;13.132;2023-07-08T14:06:01;6.57;;;3.90;;
31306;SDS011;17935;51.120;13.132;2023-07-08T14:08:26;8.00;;;4.00;;
31306;SDS011;17935;51.120;13.132;2023-07-08T14:10:52;5.50;;;3.70;;
31306;SDS011;17935;51.120;13.132;2023-07-08T14:13:18;5.28;;;3.95;;
31306;SDS011;17935;51.120;13.132;2023-07-08T14:15:46;8.80;;;3.80;;
31306;SDS011;17935;51.120;13.132;2023-07-08T14:18:11;7.15;;;4.13;;
31306;SDS011;17935;51.120;13.132;2023-07-08T14:20:38;4.72;;;3.90;;
31306;SDS011;17935;51.120;13.132;2023-07-08T14:23:04;5.13;;;4.07;;
31306;SDS011;17935;51.120;13.132;2023-07-08T14:25:30;4.22;;;3.60;;
31306;SDS011;17935;51.120;13.132;2023-07-08T14:27:56;5.00;;;3.67;;
31306;SDS011;17935;51.120;13.132;2023-07-08T14:30:22;4.10;;;3.70;;
31306;SDS011;17935;51.120;13.132;2023-07-08T14:32:48;5.90;;;3.80;;
31306;SDS011;17935;51.120;13.132;2023-07-08T14:35:24;4.03;;;3.63;;
31306;SDS011;17935;51.120;13.132;2023-07-08T14:37:50;7.82;;;3.60;;
31306;SDS011;17935;51.120;13.132;2023-07-08T14:40:22;4.38;;;3.65;;
31306;SDS011;17935;51.120;13.132;2023-07-08T14:42:51;7.35;;;4.22;;
31306;SDS011;17935;51.120;13.132;2023-07-08T14:45:19;5.72;;;4.05;;
31306;SDS011;17935;51.120;13.132;2023-07-08T14:47:45;6.32;;;3.78;;
31306;SDS011;17935;51.120;13.132;2023-07-08T14:50:12;7.75;;;4.35;;
31306;SDS011;17935;51.120;13.132;2023-07-08T14:52:38;3.78;;;3.40;;
31306;SDS011;17935;51.120;13.132;2023-07-08T14:55:04;6.72;;;3.92;;
31306;SDS011;17935;51.120;13.132;2023-07-08T14:57:32;4.97;;;4.30;;
31306;SDS011;17935;51.120;13.132;2023-07-08T15:00:01;3.78;;;3.42;;
31306;SDS011;17935;51.120;13.132;2023-07-08T15:02:29;4.95;;;4.18;;
31306;SDS011;17935;51.120;13.132;2023-07-08T15:04:55;9.70;;;3.85;;
31306;SDS011;17935;51.120;13.132;2023-07-08T15:07:21;4.40;;;3.58;;
31306;SDS011;17935;51.120;13.132;2023-07-08T15:09:47;7.97;;;3.55;;
31306;SDS011;17935;51.120;13.132;2023-07-08T15:12:13;6.07;;;4.07;;
31306;SDS011;17935;51.120;13.132;2023-07-08T15:14:39;7.07;;;3.78;;
31306;SDS011;17935;51.120;13.132;2023-07-08T15:17:12;17.45;;;4.10;;
31306;SDS011;17935;51.120;13.132;2023-07-08T15:19:41;5.30;;;3.92;;
31306;SDS011;17935;51.120;13.132;2023-07-08T15:22:07;4.13;;;3.17;;
31306;SDS011;17935;51.120;13.132;2023-07-08T15:24:33;6.10;;;3.72;;
31306;SDS011;17935;51.120;13.132;2023-07-08T15:26:59;6.63;;;4.50;;